Time;durP1;ratioP1;P1;durP2;ratioP2;P2;SDS_P1;SDS_P2;PMS_P1;PMS_P2;Temp;Humidity;BMP_temperature;BMP_pressure;BME280_temperature;BME280_humidity;BME280_pressure;Samples;Min_cycle;Max_cycle;Signal;HPM_P1;HPM_P2
2022/01/21 00:01:24;;;;;;;8.03;4.40;;;2.80;99.90;;;;;;5051564;28;20228;-68
2022/01/21 00:03:50;;;;;;;14.90;5.83;;;2.90;99.90;;;;;;5052526;28;20436;-69
2022/01/21 00:06:16;;;;;;;12.37;4.97;;;3.00;99.90;;;;;;5050752;28;20436;-69
2022/01/21 00:08:43;;;;;;;12.03;5.47;;;3.00;99.90;;;;;;5051408;28;20948;-69
2022/01/21 00:11:10;;;;;;;11.20;6.00;;;3.10;99.90;;;;;;5054552;28;20417;-68
2022/01/21 00:13:37;;;;;;;11.33;6.57;;;3.20;99.90;;;;;;5055247;28;20448;-69
2022/01/21 00:16:14;;;;;;;11.40;6.60;;;3.10;99.90;;;;;;5055808;28;20460;-68
2022/01/21 00:18:43;;;;;;;13.33;6.70;;;3.00;99.90;;;;;;5055701;28;20763;-68
2022/01/21 00:32:22;;;;;;;10.67;6.93;;;3.20;99.90;;;;;;5055834;28;20431;-70
2022/01/21 00:34:48;;;;;;;18.27;8.03;;;3.20;99.90;;;;;;5055553;28;20957;-71
2022/01/21 00:37:13;;;;;;;10.53;6.77;;;3.30;99.90;;;;;;5055968;28;20552;-70
2022/01/21 00:39:39;;;;;;;13.47;7.57;;;3.10;99.90;;;;;;5062156;28;20695;-71
2022/01/21 00:44:32;;;;;;;13.00;6.83;;;2.80;99.90;;;;;;5055567;28;20429;-71
2022/01/21 00:46:57;;;;;;;14.07;7.50;;;2.70;99.90;;;;;;5062849;28;20423;-71
2022/01/21 00:49:23;;;;;;;14.93;7.33;;;2.80;99.90;;;;;;5075596;28;20404;-70
2022/01/21 00:51:48;;;;;;;13.93;8.90;;;2.80;99.90;;;;;;5083134;28;20174;-70
2022/01/21 00:54:14;;;;;;;21.10;9.93;;;2.70;99.90;;;;;;5088076;28;20175;-70
2022/01/21 00:56:40;;;;;;;18.07;9.00;;;2.70;99.90;;;;;;5089173;28;20229;-70
2022/01/21 00:59:05;;;;;;;22.93;10.27;;;2.70;99.90;;;;;;5092063;28;20178;-70
2022/01/21 01:01:31;;;;;;;15.13;9.63;;;2.70;99.90;;;;;;5099209;28;20169;-69
2022/01/21 01:03:57;;;;;;;20.57;8.97;;;2.70;99.90;;;;;;5098542;28;20254;-67
2022/01/21 01:06:22;;;;;;;22.60;10.07;;;2.80;99.90;;;;;;5098100;28;20162;-67
2022/01/21 01:08:50;;;;;;;17.43;9.73;;;2.80;99.90;;;;;;5097160;28;20451;-68
2022/01/21 01:11:26;;;;;;;19.80;9.37;;;2.90;99.90;;;;;;5075626;28;20229;-70
2022/01/21 01:22:05;;;;;;;19.50;11.20;;;3.30;99.90;;;;;;5071697;28;20444;-69
2022/01/21 01:30:00;;;;;;;22.80;11.30;;;3.40;99.90;;;;;;5071755;28;20964;-68
2022/01/21 01:32:28;;;;;;;21.30;12.10;;;3.50;99.90;;;;;;5063759;28;20445;-69
2022/01/21 01:34:54;;;;;;;24.70;12.37;;;3.50;99.90;;;;;;5032992;28;21005;-70
2022/01/21 01:40:23;;;;;;;18.53;12.37;;;3.40;99.90;;;;;;5061290;28;20433;-69
2022/01/21 01:43:10;;;;;;;19.43;11.70;;;3.40;99.90;;;;;;5074331;28;20424;-70
2022/01/21 01:50:54;;;;;;;20.40;13.17;;;3.30;99.90;;;;;;5071722;28;20424;-70
2022/01/21 01:53:30;;;;;;;23.83;13.17;;;3.10;99.90;;;;;;5073914;28;20436;-69
2022/01/21 01:55:57;;;;;;;20.73;14.23;;;3.20;99.90;;;;;;5074149;28;20956;-69
2022/01/21 01:58:22;;;;;;;24.03;13.53;;;3.20;99.90;;;;;;5074394;28;20401;-70
2022/01/21 02:00:48;;;;;;;22.67;13.40;;;3.40;99.90;;;;;;5072654;28;20421;-69
2022/01/21 02:03:15;;;;;;;33.20;15.87;;;3.40;99.90;;;;;;5073823;28;20197;-71
2022/01/21 02:05:42;;;;;;;24.70;15.07;;;3.50;99.90;;;;;;5080727;28;20174;-71
2022/01/21 02:08:10;;;;;;;27.10;14.23;;;3.50;99.90;;;;;;5081724;28;20412;-70
2022/01/21 02:10:36;;;;;;;23.23;14.83;;;3.60;99.90;;;;;;5086015;28;20410;-70
2022/01/21 02:13:06;;;;;;;27.23;14.10;;;3.60;99.90;;;;;;5078293;28;20457;-65
2022/01/21 02:15:38;;;;;;;25.43;15.30;;;3.70;99.90;;;;;;5071682;28;20543;-69
2022/01/21 02:23:33;;;;;;;23.03;13.87;;;3.40;99.90;;;;;;5068082;28;20489;-68
2022/01/21 02:26:00;;;;;;;23.87;14.93;;;3.50;99.90;;;;;;5073311;28;20871;-68
2022/01/21 02:28:26;;;;;;;23.40;14.57;;;3.40;99.90;;;;;;5072837;28;20260;-69
2022/01/21 02:30:56;;;;;;;25.83;14.50;;;3.50;99.90;;;;;;5072968;28;20544;-69
2022/01/21 02:33:23;;;;;;;22.53;13.83;;;3.50;99.90;;;;;;5065628;28;20226;-69
2022/01/21 02:35:48;;;;;;;23.27;13.70;;;3.60;99.90;;;;;;5053145;28;20456;-70
2022/01/21 02:38:15;;;;;;;25.90;13.03;;;3.60;99.90;;;;;;5053110;28;20400;-69
2022/01/21 02:40:40;;;;;;;32.57;14.93;;;3.70;99.90;;;;;;5071612;28;20174;-69
2022/01/21 02:43:06;;;;;;;20.70;14.47;;;3.70;99.90;;;;;;5072691;28;20772;-69
2022/01/21 02:45:32;;;;;;;19.90;13.30;;;3.70;99.90;;;;;;5068238;28;20531;-68
2022/01/21 02:47:57;;;;;;;20.40;12.97;;;3.70;99.90;;;;;;5053049;28;20180;-69
2022/01/21 02:50:23;;;;;;;20.03;13.33;;;3.50;99.90;;;;;;5053392;28;20194;-69
2022/01/21 02:55:53;;;;;;;27.10;12.70;;;3.10;99.90;;;;;;4990226;28;20272;-69
2022/01/21 02:58:19;;;;;;;19.40;11.73;;;3.10;99.90;;;;;;4990863;28;20452;-69
2022/01/21 03:00:44;;;;;;;20.80;13.37;;;3.10;99.90;;;;;;4991997;28;20443;-69
2022/01/21 03:03:10;;;;;;;26.40;11.90;;;3.10;99.90;;;;;;4990940;28;20219;-69
2022/01/21 03:05:38;;;;;;;22.60;12.87;;;3.20;99.90;;;;;;4990686;28;20260;-69
2022/01/21 03:08:05;;;;;;;16.60;11.17;;;3.20;99.90;;;;;;4990276;28;20432;-70
2022/01/21 03:10:30;;;;;;;24.17;11.20;;;3.30;99.90;;;;;;4990815;28;20524;-68
2022/01/21 03:12:56;;;;;;;17.57;11.90;;;3.30;99.90;;;;;;5037017;22;20949;-67
2022/01/21 03:15:21;;;;;;;21.73;12.87;;;3.40;99.90;;;;;;5042475;28;20207;-69
2022/01/21 03:17:47;;;;;;;20.43;12.73;;;3.40;99.90;;;;;;5044704;28;20255;-68
2022/01/21 03:20:13;;;;;;;18.00;12.30;;;3.30;99.90;;;;;;5054406;28;20176;-69
2022/01/21 03:22:38;;;;;;;20.47;12.13;;;3.40;99.90;;;;;;5053191;28;20640;-68
2022/01/21 03:25:06;;;;;;;25.60;12.60;;;3.20;99.90;;;;;;5053296;28;20170;-68
2022/01/21 03:27:32;;;;;;;25.43;12.53;;;3.10;99.90;;;;;;5053875;28;20852;-69
2022/01/21 03:29:58;;;;;;;17.77;11.80;;;3.20;99.90;;;;;;5054102;28;20447;-68
2022/01/21 03:32:25;;;;;;;22.10;12.50;;;3.20;99.90;;;;;;5053988;28;20196;-68
2022/01/21 03:34:51;;;;;;;23.67;12.07;;;3.20;99.90;;;;;;5054678;28;20473;-67
2022/01/21 03:37:17;;;;;;;23.70;12.83;;;3.30;99.90;;;;;;5054190;28;20436;-68
2022/01/21 03:39:43;;;;;;;18.27;12.03;;;3.40;99.90;;;;;;5055875;28;20249;-67
2022/01/21 03:42:08;;;;;;;20.30;12.77;;;3.50;99.90;;;;;;5054925;28;20467;-69
2022/01/21 03:44:34;;;;;;;22.17;12.70;;;3.50;99.90;;;;;;5055150;28;20209;-68
2022/01/21 03:47:00;;;;;;;17.67;12.60;;;3.60;99.90;;;;;;5058813;28;20175;-68
2022/01/21 03:49:28;;;;;;;20.60;13.00;;;3.60;99.90;;;;;;5057503;28;20185;-68
2022/01/21 03:51:53;;;;;;;22.50;13.50;;;3.50;99.90;;;;;;5056783;28;20199;-68
2022/01/21 03:54:18;;;;;;;22.00;14.10;;;3.50;99.90;;;;;;5056261;28;20407;-67
2022/01/21 03:56:44;;;;;;;21.60;13.17;;;3.50;99.90;;;;;;5038499;28;20589;-68
2022/01/21 03:59:09;;;;;;;26.43;14.43;;;3.50;99.90;;;;;;5057042;28;20189;-67
2022/01/21 04:01:36;;;;;;;27.90;14.17;;;3.50;99.90;;;;;;5055969;28;20177;-68
2022/01/21 04:04:01;;;;;;;18.70;14.47;;;3.50;99.90;;;;;;5057083;28;20210;-68
2022/01/21 04:06:27;;;;;;;22.50;15.17;;;3.50;99.90;;;;;;5056285;28;20492;-69
2022/01/21 04:08:53;;;;;;;27.70;16.13;;;3.50;99.90;;;;;;5056814;28;20183;-68
2022/01/21 04:11:18;;;;;;;27.37;16.53;;;3.50;99.90;;;;;;5057680;28;20177;-68
2022/01/21 04:13:45;;;;;;;23.30;15.20;;;3.60;99.90;;;;;;5056556;28;20287;-68
2022/01/21 04:16:11;;;;;;;26.37;15.03;;;3.60;99.90;;;;;;5055911;28;20201;-68
2022/01/21 04:18:36;;;;;;;28.53;15.93;;;3.60;99.90;;;;;;5056711;28;20426;-68
2022/01/21 04:21:02;;;;;;;23.90;14.70;;;3.60;99.90;;;;;;5057636;28;20716;-69
2022/01/21 04:23:28;;;;;;;29.10;14.93;;;3.70;99.90;;;;;;5056489;28;20190;-68
2022/01/21 04:25:53;;;;;;;27.10;17.93;;;3.80;99.90;;;;;;5057631;28;20688;-68
2022/01/21 04:28:20;;;;;;;24.87;16.17;;;3.80;99.90;;;;;;5058127;28;20181;-68
2022/01/21 04:30:46;;;;;;;29.37;17.30;;;3.60;99.90;;;;;;5058426;28;20175;-68
2022/01/21 04:33:12;;;;;;;28.23;15.87;;;3.60;99.90;;;;;;5058875;28;20451;-68
2022/01/21 04:35:38;;;;;;;24.50;15.37;;;3.70;99.90;;;;;;5057490;28;20965;-67
2022/01/21 04:38:07;;;;;;;24.60;15.90;;;3.70;99.90;;;;;;5057670;28;20498;-68
2022/01/21 04:40:39;;;;;;;28.53;16.17;;;3.70;99.90;;;;;;5075025;28;20437;-69
2022/01/21 04:48:34;;;;;;;29.20;16.37;;;3.60;99.90;;;;;;5076100;28;20540;-67
2022/01/21 04:51:12;;;;;;;41.80;17.30;;;3.50;99.90;;;;;;5074149;28;20965;-68
2022/01/21 04:53:40;;;;;;;21.87;14.20;;;3.60;99.90;;;;;;5058696;28;20707;-68
2022/01/21 04:56:06;;;;;;;28.37;15.87;;;3.40;99.90;;;;;;5074320;28;20452;-68
2022/01/21 04:58:32;;;;;;;27.90;16.63;;;3.20;99.90;;;;;;5075809;28;20410;-69
2022/01/21 05:01:00;;;;;;;31.73;16.40;;;3.10;99.90;;;;;;5073762;28;20442;-68
2022/01/21 05:03:25;;;;;;;23.40;15.40;;;3.20;99.90;;;;;;5075270;28;20421;-69
2022/01/21 05:05:51;;;;;;;25.80;15.10;;;3.30;99.90;;;;;;5075764;28;20449;-68
2022/01/21 05:08:25;;;;;;;22.97;14.53;;;3.40;99.90;;;;;;5058126;28;20691;-68
2022/01/21 05:10:50;;;;;;;28.60;15.60;;;3.50;99.90;;;;;;5074773;28;20597;-67
2022/01/21 05:13:21;;;;;;;22.87;15.27;;;3.50;99.90;;;;;;5064484;28;20962;-70
2022/01/21 05:16:03;;;;;;;24.07;15.50;;;3.60;99.90;;;;;;5056098;28;20210;-68
2022/01/21 05:18:28;;;;;;;27.00;15.70;;;3.70;99.90;;;;;;5056863;28;20412;-69
2022/01/21 05:20:54;;;;;;;27.20;15.87;;;3.70;99.90;;;;;;5058082;28;20417;-68
2022/01/21 05:23:20;;;;;;;25.13;15.00;;;3.70;99.90;;;;;;5038507;28;20241;-69
2022/01/21 05:25:45;;;;;;;26.47;16.30;;;3.70;99.90;;;;;;5058122;28;20185;-69
2022/01/21 05:28:12;;;;;;;24.60;14.73;;;3.70;99.90;;;;;;5063346;28;20418;-68
2022/01/21 05:30:37;;;;;;;30.90;15.33;;;3.70;99.90;;;;;;5058417;28;20184;-69
2022/01/21 05:33:03;;;;;;;30.57;16.07;;;3.60;99.90;;;;;;5060009;28;20542;-69
2022/01/21 05:35:28;;;;;;;27.57;15.57;;;3.70;99.90;;;;;;5057994;28;20204;-68
2022/01/21 05:37:54;;;;;;;25.87;15.90;;;3.70;99.90;;;;;;5066676;28;20168;-69
2022/01/21 05:40:20;;;;;;;27.60;15.60;;;3.80;99.90;;;;;;5073998;28;20178;-69
2022/01/21 05:42:46;;;;;;;28.07;16.40;;;3.70;99.90;;;;;;5067696;28;20226;-68
2022/01/21 05:47:56;;;;;;;27.67;16.90;;;3.50;99.90;;;;;;5081599;28;20534;-68
2022/01/21 05:50:22;;;;;;;27.23;17.00;;;3.40;99.90;;;;;;5074739;28;20452;-68
2022/01/21 05:52:48;;;;;;;31.70;17.40;;;3.40;99.90;;;;;;5075685;28;20217;-69
2022/01/21 05:55:15;;;;;;;27.57;18.10;;;3.50;99.90;;;;;;5064636;28;20209;-68
2022/01/21 05:57:41;;;;;;;25.37;16.20;;;3.60;99.90;;;;;;5089525;28;20474;-68
2022/01/21 06:00:08;;;;;;;30.97;15.70;;;3.70;99.90;;;;;;5086406;28;20433;-69
2022/01/21 06:02:35;;;;;;;31.20;17.33;;;3.70;99.90;;;;;;5074754;28;20452;-70
2022/01/21 06:05:00;;;;;;;29.43;17.63;;;3.80;99.90;;;;;;5074830;28;20417;-68
2022/01/21 06:07:26;;;;;;;27.17;15.97;;;3.80;99.90;;;;;;5092751;28;20415;-69
2022/01/21 06:09:51;;;;;;;23.37;15.80;;;3.80;99.90;;;;;;5093031;28;20190;-69
2022/01/21 06:12:17;;;;;;;28.90;16.47;;;3.90;99.90;;;;;;5089049;28;20206;-69
2022/01/21 06:14:42;;;;;;;24.17;15.87;;;3.90;99.90;;;;;;5066742;28;20252;-69
2022/01/21 06:17:11;;;;;;;27.70;15.50;;;4.00;99.90;;;;;;5053254;28;20724;-69
2022/01/21 06:19:37;;;;;;;27.60;15.83;;;3.90;99.90;;;;;;5044031;28;20275;-68
2022/01/21 06:22:03;;;;;;;28.43;14.60;;;3.90;99.90;;;;;;5051697;28;20422;-69
2022/01/21 06:24:28;;;;;;;22.47;15.60;;;3.90;99.90;;;;;;5062385;28;20419;-68
2022/01/21 06:26:59;;;;;;;29.23;16.93;;;3.90;99.90;;;;;;5049682;28;20194;-69
2022/01/21 06:29:27;;;;;;;24.53;15.33;;;3.90;99.90;;;;;;5045947;28;20193;-68
2022/01/21 06:31:53;;;;;;;28.93;16.60;;;4.00;99.90;;;;;;5034045;28;20560;-71
2022/01/21 06:34:18;;;;;;;21.70;15.27;;;3.90;99.90;;;;;;5047576;28;20470;-69
2022/01/21 06:36:44;;;;;;;24.20;15.93;;;3.90;99.90;;;;;;5045276;28;20681;-69
2022/01/21 06:39:09;;;;;;;28.30;15.13;;;3.90;99.90;;;;;;5042170;28;20725;-68
2022/01/21 06:41:35;;;;;;;29.03;17.40;;;3.80;99.90;;;;;;5042719;28;20244;-68
2022/01/21 06:44:01;;;;;;;30.23;16.87;;;3.90;99.90;;;;;;5046885;28;20200;-68
2022/01/21 06:46:27;;;;;;;26.60;15.30;;;3.90;99.90;;;;;;5049422;28;20183;-67
2022/01/21 06:48:53;;;;;;;27.30;17.00;;;3.90;99.90;;;;;;5051464;28;20398;-68
2022/01/21 06:51:18;;;;;;;26.07;16.50;;;3.90;99.90;;;;;;5051246;28;20433;-67
2022/01/21 06:53:44;;;;;;;26.93;16.33;;;3.70;99.90;;;;;;5049826;28;20205;-68
2022/01/21 06:56:09;;;;;;;27.50;17.37;;;3.80;99.90;;;;;;5049879;28;20215;-68
2022/01/21 06:58:35;;;;;;;29.73;16.53;;;3.70;99.90;;;;;;5050363;28;20237;-68
2022/01/21 07:01:00;;;;;;;31.07;18.80;;;3.80;99.90;;;;;;5052872;28;20217;-68
2022/01/21 07:03:26;;;;;;;33.70;16.57;;;3.90;99.90;;;;;;5051033;28;20262;-68
2022/01/21 07:05:51;;;;;;;31.47;17.60;;;3.80;99.90;;;;;;5050637;28;20246;-68
2022/01/21 07:08:17;;;;;;;34.70;17.30;;;3.70;99.90;;;;;;5050383;28;20206;-67
2022/01/21 07:10:44;;;;;;;33.63;19.40;;;3.70;99.90;;;;;;5030995;28;20563;-68
2022/01/21 07:13:11;;;;;;;37.70;19.40;;;3.70;99.90;;;;;;5049664;28;20527;-69
2022/01/21 07:15:37;;;;;;;33.23;17.33;;;3.70;99.90;;;;;;5031523;28;20475;-67
2022/01/21 07:18:02;;;;;;;32.13;17.77;;;3.80;99.90;;;;;;5049766;28;20504;-68
2022/01/21 07:20:28;;;;;;;32.77;18.93;;;3.90;99.90;;;;;;5030408;28;20483;-68
2022/01/21 07:22:54;;;;;;;39.00;20.43;;;3.90;99.90;;;;;;5051006;28;20257;-68
2022/01/21 07:25:19;;;;;;;30.10;18.90;;;4.00;99.90;;;;;;5048193;28;20230;-67
2022/01/21 07:27:45;;;;;;;33.30;18.30;;;3.90;99.90;;;;;;5050786;28;20181;-67
2022/01/21 07:30:12;;;;;;;26.27;18.00;;;3.80;99.90;;;;;;5051357;28;20197;-68
2022/01/21 07:32:42;;;;;;;36.70;19.17;;;3.80;99.90;;;;;;5034479;28;20199;-68
2022/01/21 07:35:09;;;;;;;33.43;18.70;;;3.70;99.90;;;;;;5050761;28;20538;-67
2022/01/21 07:37:38;;;;;;;36.17;20.20;;;3.70;99.90;;;;;;5051235;28;20415;-67
2022/01/21 07:40:05;;;;;;;30.80;19.87;;;3.80;99.90;;;;;;5033544;28;20418;-69
2022/01/21 07:42:31;;;;;;;36.77;21.43;;;3.60;99.90;;;;;;5051856;28;20503;-68
2022/01/21 07:44:57;;;;;;;29.87;19.07;;;3.40;99.90;;;;;;5053189;28;21073;-67
2022/01/21 07:47:23;;;;;;;35.23;19.03;;;3.40;99.90;;;;;;5035037;28;20457;-68
2022/01/21 07:49:49;;;;;;;31.80;20.20;;;3.50;99.90;;;;;;5054032;28;20462;-67
2022/01/21 07:52:15;;;;;;;33.00;20.43;;;3.40;99.90;;;;;;5055581;28;20228;-67
2022/01/21 07:54:41;;;;;;;38.10;22.10;;;3.20;99.90;;;;;;5055669;28;20186;-66
2022/01/21 07:57:07;;;;;;;33.17;20.30;;;3.30;99.90;;;;;;5019641;28;20418;-68
2022/01/21 07:59:32;;;;;;;34.80;20.93;;;3.40;99.90;;;;;;5053904;28;20455;-67
2022/01/21 08:01:58;;;;;;;33.20;21.90;;;3.50;99.90;;;;;;5053672;28;20518;-67
2022/01/21 08:04:23;;;;;;;31.43;19.23;;;3.50;99.90;;;;;;5054280;28;20170;-67
2022/01/21 08:06:49;;;;;;;35.70;21.63;;;3.20;99.90;;;;;;5053919;28;20627;-67
2022/01/21 08:09:15;;;;;;;36.17;20.70;;;3.10;99.90;;;;;;5054348;28;20177;-67
2022/01/21 08:11:40;;;;;;;29.00;19.20;;;3.10;99.90;;;;;;5055141;28;20174;-68
2022/01/21 08:14:06;;;;;;;37.33;23.00;;;3.20;99.90;;;;;;5054869;28;20466;-67
2022/01/21 08:16:34;;;;;;;36.13;20.67;;;3.20;99.90;;;;;;5074821;28;20265;-67
2022/01/21 08:19:00;;;;;;;43.00;21.80;;;3.10;99.90;;;;;;5056570;28;20540;-68
2022/01/21 08:21:26;;;;;;;36.80;20.17;;;2.90;99.90;;;;;;5056028;28;20408;-68
2022/01/21 08:23:53;;;;;;;37.40;20.70;;;3.00;99.90;;;;;;5073839;28;20859;-67
2022/01/21 08:26:21;;;;;;;34.17;20.80;;;3.10;99.90;;;;;;5071866;28;20245;-68
2022/01/21 08:28:47;;;;;;;31.50;19.70;;;3.00;99.90;;;;;;5073801;28;20425;-67
2022/01/21 08:31:13;;;;;;;36.90;20.50;;;3.10;99.90;;;;;;5075409;28;20412;-67
2022/01/21 08:33:38;;;;;;;32.23;21.23;;;3.30;99.90;;;;;;5062197;28;20445;-68
2022/01/21 08:36:07;;;;;;;32.43;20.87;;;3.40;99.90;;;;;;5062202;28;20209;-67
2022/01/21 08:38:33;;;;;;;31.53;20.37;;;3.50;99.90;;;;;;5059740;28;20177;-67
2022/01/21 08:40:58;;;;;;;32.50;20.53;;;3.50;99.90;;;;;;5072573;28;20515;-68
2022/01/21 08:43:24;;;;;;;42.50;22.47;;;3.50;99.90;;;;;;5055278;28;20477;-68
2022/01/21 08:45:49;;;;;;;39.77;22.70;;;3.60;99.90;;;;;;5055723;28;20177;-67
2022/01/21 08:48:15;;;;;;;34.13;19.83;;;3.50;99.90;;;;;;5056441;28;20702;-68
2022/01/21 08:50:40;;;;;;;34.47;19.20;;;3.40;99.90;;;;;;5056972;28;20199;-68
2022/01/21 08:53:10;;;;;;;37.77;19.10;;;3.40;99.90;;;;;;5055915;28;20758;-68
2022/01/21 08:55:35;;;;;;;34.73;20.20;;;3.30;99.90;;;;;;5056315;28;21082;-69
2022/01/21 08:58:02;;;;;;;33.37;19.83;;;3.20;99.90;;;;;;5056200;28;20499;-68
2022/01/21 09:00:27;;;;;;;40.50;20.63;;;3.10;99.90;;;;;;5063035;28;20167;-68
2022/01/21 09:02:53;;;;;;;36.60;21.03;;;3.20;99.90;;;;;;5076356;28;20432;-68
2022/01/21 09:05:19;;;;;;;37.67;20.10;;;3.30;99.90;;;;;;5075893;28;20176;-68
2022/01/21 09:07:45;;;;;;;35.67;20.57;;;3.30;99.90;;;;;;5062465;28;20236;-68
2022/01/21 09:10:11;;;;;;;39.47;22.90;;;3.20;99.90;;;;;;5056515;28;20484;-67
2022/01/21 09:12:37;;;;;;;39.23;19.80;;;3.00;99.90;;;;;;5056371;28;20233;-68
2022/01/21 09:15:04;;;;;;;35.53;19.40;;;3.00;99.90;;;;;;5055880;28;20456;-67
2022/01/21 09:17:30;;;;;;;33.93;21.10;;;3.20;99.90;;;;;;5055051;28;21087;-68
2022/01/21 09:19:55;;;;;;;37.87;20.27;;;3.20;99.90;;;;;;5055708;28;20406;-68
2022/01/21 09:22:21;;;;;;;35.83;20.07;;;3.10;99.90;;;;;;5054825;28;20626;-67
2022/01/21 09:24:46;;;;;;;34.57;21.57;;;3.30;99.90;;;;;;5054556;28;20225;-67
2022/01/21 09:27:12;;;;;;;36.23;21.47;;;3.40;99.90;;;;;;5054458;28;20257;-68
2022/01/21 09:29:38;;;;;;;38.00;22.30;;;3.50;99.90;;;;;;5055617;28;20182;-67
2022/01/21 09:32:05;;;;;;;32.40;19.80;;;3.40;99.90;;;;;;5055576;28;20641;-67
2022/01/21 09:34:30;;;;;;;30.07;19.63;;;3.30;99.90;;;;;;5059374;28;20212;-68
2022/01/21 09:36:58;;;;;;;40.50;22.33;;;3.20;99.90;;;;;;5060605;28;20417;-68
2022/01/21 09:39:25;;;;;;;36.57;19.50;;;3.20;99.90;;;;;;5057439;28;20195;-67
2022/01/21 09:41:53;;;;;;;34.87;21.17;;;3.30;99.90;;;;;;5042632;28;20415;-68
2022/01/21 09:44:20;;;;;;;32.63;21.90;;;3.50;99.90;;;;;;5055281;28;20424;-67
2022/01/21 09:46:49;;;;;;;39.70;23.67;;;3.50;99.90;;;;;;5056460;28;20778;-68
2022/01/21 09:51:57;;;;;;;36.20;21.23;;;3.40;99.90;;;;;;5056341;28;20848;-68
2022/01/21 09:54:32;;;;;;;32.73;20.67;;;3.20;99.90;;;;;;5056470;28;20436;-67
2022/01/21 09:56:59;;;;;;;38.23;22.90;;;3.20;99.90;;;;;;5054621;28;20413;-68
2022/01/21 09:59:28;;;;;;;34.70;22.13;;;3.40;99.90;;;;;;5037139;28;20443;-68
2022/01/21 10:02:16;;;;;;;38.93;21.07;;;3.50;99.90;;;;;;5053844;28;20394;-67
2022/01/21 10:04:42;;;;;;;38.23;22.10;;;3.60;99.90;;;;;;5055547;28;20412;-68
2022/01/21 10:07:15;;;;;;;37.00;21.27;;;3.70;99.90;;;;;;5054085;28;20399;-69
2022/01/21 10:09:43;;;;;;;37.40;22.07;;;3.70;99.90;;;;;;5036329;28;20513;-68
2022/01/21 10:12:09;;;;;;;39.80;22.30;;;3.70;99.90;;;;;;5054065;28;20400;-68
2022/01/21 10:14:34;;;;;;;39.20;22.10;;;3.90;99.90;;;;;;5055578;28;20413;-68
2022/01/21 10:17:00;;;;;;;40.77;24.87;;;3.80;99.90;;;;;;5074693;22;20510;-72
2022/01/21 10:19:29;;;;;;;37.80;23.70;;;3.90;99.90;;;;;;5055917;28;20272;-72
2022/01/21 10:22:15;;;;;;;42.00;24.30;;;4.00;99.90;;;;;;5065292;28;20425;-71
2022/01/21 10:24:53;;;;;;;40.50;22.10;;;3.90;99.90;;;;;;5073237;28;20405;-69
2022/01/21 10:27:39;;;;;;;38.97;22.53;;;4.00;99.90;;;;;;5051720;28;20434;-69
2022/01/21 10:30:20;;;;;;;39.80;23.27;;;4.10;99.90;;;;;;5052235;28;20392;-69
2022/01/21 10:32:45;;;;;;;38.70;23.20;;;4.20;99.90;;;;;;5041527;28;20451;-72
2022/01/21 10:35:26;;;;;;;36.00;21.43;;;4.30;99.90;;;;;;5041365;28;20449;-70
2022/01/21 10:37:55;;;;;;;38.43;23.30;;;4.10;99.90;;;;;;5095521;28;20167;-70
2022/01/21 10:40:21;;;;;;;37.87;22.17;;;4.00;99.90;;;;;;5079776;28;20595;-71
2022/01/21 10:42:47;;;;;;;40.90;22.97;;;4.10;99.90;;;;;;5075594;28;20416;-71
2022/01/21 10:45:13;;;;;;;37.23;22.10;;;4.20;99.90;;;;;;5077741;28;20176;-68
2022/01/21 10:47:46;;;;;;;45.73;23.40;;;4.30;99.90;;;;;;5072503;28;20447;-71
2022/01/21 10:50:22;;;;;;;35.57;22.57;;;4.40;99.90;;;;;;5066659;28;20209;-71
2022/01/21 10:52:52;;;;;;;36.87;21.87;;;4.40;99.90;;;;;;5076217;28;20777;-71
2022/01/21 10:55:38;;;;;;;39.50;22.90;;;4.30;99.90;;;;;;5076004;28;20537;-70
2022/01/21 10:58:16;;;;;;;32.83;22.23;;;4.40;99.90;;;;;;5076324;28;20517;-71
2022/01/21 11:01:00;;;;;;;40.50;22.93;;;4.50;99.90;;;;;;5074211;28;20433;-70
2022/01/21 11:03:28;;;;;;;30.23;20.23;;;4.70;99.90;;;;;;5077974;28;20418;-71
2022/01/21 11:06:13;;;;;;;31.07;19.97;;;4.70;99.90;;;;;;5077749;28;20437;-71
2022/01/21 11:08:39;;;;;;;29.40;20.20;;;4.80;99.90;;;;;;5075362;28;21182;-70
2022/01/21 11:11:04;;;;;;;25.37;17.50;;;4.80;99.90;;;;;;5072665;28;20424;-70
2022/01/21 11:13:32;;;;;;;28.57;17.47;;;4.90;99.90;;;;;;5073272;28;20270;-70
2022/01/21 11:16:15;;;;;;;27.80;18.40;;;4.90;99.90;;;;;;5074892;28;20212;-70
2022/01/21 11:19:06;;;;;;;26.50;17.60;;;4.80;99.90;;;;;;5073847;28;20777;-70
2022/01/21 11:22:02;;;;;;;21.83;15.80;;;4.90;99.90;;;;;;5074221;28;20439;-71
2022/01/21 11:24:27;;;;;;;28.17;16.80;;;5.10;99.90;;;;;;4993543;28;20840;-72
2022/01/21 11:27:07;;;;;;;24.50;16.73;;;5.10;99.90;;;;;;4977029;28;20440;-70
2022/01/21 11:29:34;;;;;;;21.73;15.73;;;5.10;99.90;;;;;;4994340;28;20223;-71
2022/01/21 11:31:59;;;;;;;22.67;15.70;;;5.10;99.90;;;;;;4989271;28;20431;-71
2022/01/21 11:34:25;;;;;;;25.80;17.60;;;5.10;99.90;;;;;;4976738;28;20427;-71
2022/01/21 11:36:51;;;;;;;32.00;19.50;;;4.90;99.90;;;;;;4974912;28;20217;-73
2022/01/21 11:39:21;;;;;;;25.20;17.50;;;4.60;99.90;;;;;;4974572;28;20597;-70
2022/01/21 11:41:50;;;;;;;25.03;17.27;;;4.60;99.90;;;;;;4974624;28;20743;-73
2022/01/21 11:44:20;;;;;;;24.60;17.17;;;4.60;99.90;;;;;;4991446;28;20427;-71
2022/01/21 11:49:59;;;;;;;28.80;17.43;;;4.80;99.90;;;;;;4989831;28;20432;-71
2022/01/21 11:52:25;;;;;;;27.93;17.50;;;4.90;99.90;;;;;;4993743;28;20411;-71
2022/01/21 11:54:51;;;;;;;22.07;16.03;;;5.00;99.90;;;;;;4991898;28;20518;-72
2022/01/21 11:57:29;;;;;;;21.17;15.27;;;5.00;99.90;;;;;;4994156;28;20541;-72
2022/01/21 12:00:17;;;;;;;23.37;15.80;;;5.00;99.90;;;;;;5003593;28;20625;-71
2022/01/21 12:02:49;;;;;;;24.47;16.90;;;5.20;99.90;;;;;;5074894;28;20424;-70
2022/01/21 12:05:25;;;;;;;21.27;16.17;;;5.30;99.90;;;;;;5074558;28;20432;-71
2022/01/21 12:07:51;;;;;;;26.63;15.97;;;5.20;99.90;;;;;;5079081;28;20489;-72
2022/01/21 12:10:42;;;;;;;17.43;14.10;;;5.20;99.90;;;;;;5079130;28;20435;-71
2022/01/21 12:13:18;;;;;;;19.67;14.20;;;5.30;99.90;;;;;;5067738;28;20252;-69
2022/01/21 12:18:37;;;;;;;19.00;12.60;;;5.40;99.90;;;;;;5079909;28;20396;-71
2022/01/21 12:21:30;;;;;;;22.73;14.20;;;5.50;99.90;;;;;;5078654;28;20518;-70
2022/01/21 12:23:57;;;;;;;23.33;13.33;;;5.50;99.90;;;;;;5078480;28;20790;-71
2022/01/21 12:26:24;;;;;;;23.07;13.67;;;5.50;99.90;;;;;;5081831;28;20474;-69
2022/01/21 12:28:57;;;;;;;18.77;13.03;;;5.60;99.90;;;;;;5080443;28;20436;-71
2022/01/21 12:31:48;;;;;;;19.50;13.30;;;5.60;99.90;;;;;;5080638;28;20411;-72
2022/01/21 12:34:16;;;;;;;19.80;14.10;;;5.60;99.90;;;;;;5065788;28;20951;-71
2022/01/21 12:36:48;;;;;;;25.40;15.30;;;5.70;99.90;;;;;;5077373;28;20459;-71
2022/01/21 12:39:35;;;;;;;21.87;16.33;;;5.60;99.90;;;;;;5070126;28;20416;-70
2022/01/21 12:42:19;;;;;;;21.97;15.97;;;5.70;99.90;;;;;;5058212;28;20598;-70
2022/01/21 12:44:46;;;;;;;23.67;16.70;;;5.70;99.90;;;;;;5057721;28;20408;-69
2022/01/21 12:47:39;;;;;;;32.30;17.70;;;5.80;99.90;;;;;;5057050;28;20438;-70
2022/01/21 12:50:31;;;;;;;20.87;16.63;;;5.80;99.90;;;;;;5067106;28;20996;-70
2022/01/21 12:58:31;;;;;;;18.40;14.70;;;5.80;99.90;;;;;;5077204;28;20473;-70
2022/01/21 13:00:58;;;;;;;18.13;12.80;;;5.70;99.90;;;;;;5076308;28;20423;-70
2022/01/21 13:03:34;;;;;;;15.70;11.60;;;5.80;99.90;;;;;;5077559;28;20447;-70
2022/01/21 13:06:24;;;;;;;16.97;12.40;;;5.70;99.90;;;;;;5077397;28;20424;-71
2022/01/21 13:09:01;;;;;;;16.40;11.40;;;5.70;99.90;;;;;;5077506;28;20415;-70
2022/01/21 13:11:28;;;;;;;14.37;10.17;;;5.70;99.90;;;;;;5075905;28;20846;-71
2022/01/21 13:14:23;;;;;;;14.60;10.57;;;5.80;99.90;;;;;;5078120;28;20447;-71
2022/01/21 13:17:00;;;;;;;16.00;10.83;;;5.70;99.90;;;;;;5076097;28;20467;-71
2022/01/21 13:19:27;;;;;;;14.80;9.23;;;5.80;99.90;;;;;;5077265;28;20392;-72
2022/01/21 13:21:53;;;;;;;14.03;9.43;;;5.70;99.90;;;;;;5075470;28;20711;-72
2022/01/21 13:24:30;;;;;;;17.60;8.70;;;5.70;99.90;;;;;;5077347;28;20777;-72
2022/01/21 13:26:58;;;;;;;11.93;7.67;;;5.70;99.90;;;;;;5077603;28;20899;-72
2022/01/21 13:29:32;;;;;;;12.83;7.73;;;5.60;99.90;;;;;;5075903;28;20458;-70
2022/01/21 13:32:00;;;;;;;15.50;7.57;;;5.60;99.90;;;;;;5036773;28;20417;-70
2022/01/21 13:34:36;;;;;;;12.97;7.53;;;5.70;99.90;;;;;;5036512;28;20934;-71
2022/01/21 13:37:06;;;;;;;16.60;8.80;;;5.70;99.90;;;;;;5034773;28;20473;-71
2022/01/21 13:39:37;;;;;;;12.70;7.80;;;5.80;99.90;;;;;;5042357;28;20518;-71
2022/01/21 13:42:13;;;;;;;17.67;7.93;;;5.70;99.90;;;;;;5054799;28;21100;-70
2022/01/21 13:44:46;;;;;;;10.60;7.60;;;5.60;99.90;;;;;;5053918;28;20550;-71
2022/01/21 13:47:32;;;;;;;16.23;8.40;;;5.60;99.90;;;;;;5053666;28;20900;-71
2022/01/21 13:50:03;;;;;;;9.53;7.17;;;5.60;99.90;;;;;;5053753;28;20456;-70
2022/01/21 13:52:42;;;;;;;13.43;6.97;;;5.70;99.90;;;;;;5056099;28;20473;-70